CABO ROJO RAWS AT LAS ARENAS HADS current weather conditions

sailwx.info

Wind from 045 at 3 knots gusting 6

Air temperature 22.2° C
Dewpoint 19.8° C

Last reported at 2018-Jan-19 08:57 UTC.
Time now 2018-Jan-19 09:20 UTC

Location: N 17°58' W 067°10'.
View on Google Maps.

See reports from other nearby stations

  
Tides and Currents Weather Stations Pressure Air Temp Water Temp Dewpoint Dewpoint Depression Visibility Wind Speed Wind Dir Waves Ship Positions
date/time (UTC)wind fromknots sea level pressurealtimeterstation pressurevisibilityair tempwater tempwave heightnotes
2018-Jan-19 08:57 045 3 gusting 6 22.2
2018-Jan-19 07:57 080 6 gusting 6 23.3
2018-Jan-19 06:57 073 5 gusting 6 22.8
2018-Jan-19 05:57 081 4 gusting 5 23.3
2018-Jan-19 04:57 033 3 gusting 5 22.8
2018-Jan-19 03:57 046 0 gusting 5 23.9
2018-Jan-19 02:57 068 2 gusting 5 24.4
2018-Jan-19 01:57 011 3 gusting 5 24.4
2018-Jan-19 00:57 069 3 gusting 6 25.0
2018-Jan-18 23:57 070 5 gusting 6 25.0
2018-Jan-18 22:57 086 4 gusting 6 24.4
2018-Jan-18 21:57 109 4 gusting 10 26.1
2018-Jan-18 20:57 118 7 gusting 12 27.2
2018-Jan-18 19:57 142 8 gusting 13 28.3
2018-Jan-18 18:57 150 8 gusting 13 28.9
2018-Jan-18 17:57 146 9 gusting 13 28.9
2018-Jan-18 16:57 117 9 gusting 15 28.9
2018-Jan-18 15:57 120 11 gusting 15 28.9
2018-Jan-18 14:57 110 9 gusting 13 28.9
2018-Jan-18 13:57 096 7 gusting 13 28.3
2018-Jan-18 12:57 079 5 gusting 8 27.2
2018-Jan-18 11:57 032 4 gusting 5 22.8
2018-Jan-18 10:57 031 3 gusting 6 20.6
2018-Jan-18 09:57 030 4 gusting 6 20.6
2018-Jan-18 08:57 035 4 gusting 6 21.1
2018-Jan-18 07:57 033 4 gusting 6 21.1
2018-Jan-18 06:57 021 4 gusting 5 21.1
2018-Jan-18 05:57 043 4 gusting 5 21.7
2018-Jan-18 04:57 058 3 gusting 4 22.2
2018-Jan-18 03:57 039 4 gusting 5 22.8
2018-Jan-18 02:57 027 3 gusting 6 22.8
2018-Jan-18 01:57 041 4 gusting 6 23.3
2018-Jan-18 00:57 023 3 gusting 6 23.3
2018-Jan-17 23:57 024 4 gusting 6 23.3
2018-Jan-17 22:57 031 3 gusting 6 23.9